Time;durP1;ratioP1;P1;durP2;ratioP2;P2;SDS_P1;SDS_P2;PMS_P1;PMS_P2;Temp;Humidity;BMP_temperature;BMP_pressure;BME280_temperature;BME280_humidity;BME280_pressure;Samples;Min_cycle;Max_cycle;Signal;HPM_P1;HPM_P2
2022/06/21 00:02:01;;;;;;;7.63;5.38;;;7.90;99.90;;;;;;4977132;28;20035;-95
2022/06/21 00:04:26;;;;;;;9.77;4.82;;;7.90;99.90;;;;;;4977671;28;20451;-93
2022/06/21 00:06:52;;;;;;;5.78;4.82;;;7.90;99.90;;;;;;4977047;28;20045;-93
2022/06/21 00:09:18;;;;;;;8.65;5.20;;;7.90;99.90;;;;;;4977173;28;20038;-93
2022/06/21 00:11:44;;;;;;;7.50;5.05;;;7.90;99.90;;;;;;4977025;28;20035;-93
2022/06/21 00:14:10;;;;;;;8.85;5.13;;;7.90;99.90;;;;;;4977242;28;20037;-93
2022/06/21 00:16:36;;;;;;;9.50;5.88;;;7.90;99.90;;;;;;4992958;28;20035;-93
2022/06/21 00:19:04;;;;;;;6.03;4.68;;;7.90;99.90;;;;;;4976718;28;20043;-93
2022/06/21 00:21:36;;;;;;;5.30;4.65;;;7.90;99.90;;;;;;4976441;28;20058;-93
2022/06/21 00:24:02;;;;;;;6.38;4.70;;;7.80;99.90;;;;;;4977487;28;20035;-95
2022/06/21 00:26:29;;;;;;;8.10;4.30;;;7.80;99.90;;;;;;4976974;28;20117;-93
2022/06/21 00:28:55;;;;;;;6.68;4.30;;;7.80;99.90;;;;;;4977199;28;20085;-94
2022/06/21 00:31:33;;;;;;;5.47;4.15;;;7.80;99.90;;;;;;4980987;28;20035;-93
2022/06/21 00:34:07;;;;;;;6.60;4.00;;;7.90;99.90;;;;;;4997335;28;20383;-93
2022/06/21 00:36:35;;;;;;;6.75;4.57;;;7.90;99.90;;;;;;4981008;28;20035;-95
2022/06/21 00:39:03;;;;;;;6.60;4.80;;;8.00;99.90;;;;;;4981271;28;20023;-94
2022/06/21 00:41:49;;;;;;;9.57;4.22;;;8.00;99.90;;;;;;4981197;28;20033;-95
2022/06/21 00:44:38;;;;;;;5.00;4.25;;;7.90;99.90;;;;;;4981081;28;20035;-94
2022/06/21 00:47:30;;;;;;;6.53;4.45;;;8.00;99.90;;;;;;4980997;28;20027;-94
2022/06/21 00:50:00;;;;;;;7.50;4.80;;;8.00;99.90;;;;;;4980590;28;20107;-95
2022/06/21 00:52:42;;;;;;;5.40;4.75;;;7.90;99.90;;;;;;4980952;28;20023;-92
2022/06/21 00:55:19;;;;;;;8.95;4.82;;;7.90;99.90;;;;;;4980394;28;20483;-93
2022/06/21 00:57:53;;;;;;;6.15;4.50;;;7.90;99.90;;;;;;4980121;28;20031;-93
2022/06/21 01:00:24;;;;;;;8.07;4.60;;;7.90;99.90;;;;;;4980092;28;20030;-94
2022/06/21 01:02:50;;;;;;;7.70;4.53;;;7.90;99.90;;;;;;4981016;28;20141;-93
2022/06/21 01:05:16;;;;;;;6.32;4.30;;;7.90;99.90;;;;;;4981042;28;20516;-93
2022/06/21 01:07:42;;;;;;;6.20;4.45;;;7.90;99.90;;;;;;4981189;28;20041;-92
2022/06/21 01:10:12;;;;;;;7.38;4.22;;;7.90;99.90;;;;;;4980607;28;20467;-93
2022/06/21 01:12:42;;;;;;;7.28;4.38;;;7.90;99.90;;;;;;4980826;28;20183;-92
2022/06/21 01:15:21;;;;;;;4.78;3.88;;;7.90;99.90;;;;;;4980518;28;20033;-94
2022/06/21 01:17:49;;;;;;;9.60;3.85;;;7.90;99.90;;;;;;4980579;28;20057;-94
2022/06/21 01:20:20;;;;;;;6.80;4.60;;;7.80;99.90;;;;;;4980486;28;20434;-94
2022/06/21 01:22:58;;;;;;;11.25;4.70;;;7.90;99.90;;;;;;4980559;28;20102;-95
2022/06/21 01:25:27;;;;;;;8.27;4.38;;;7.90;99.90;;;;;;4980762;28;20038;-96
2022/06/21 01:27:55;;;;;;;8.45;3.97;;;7.80;99.90;;;;;;4980441;28;20024;-92
2022/06/21 01:30:26;;;;;;;4.97;3.80;;;7.80;99.90;;;;;;4980329;28;20030;-94
2022/06/21 01:32:53;;;;;;;4.67;4.17;;;7.70;99.90;;;;;;4980043;28;20031;-93
2022/06/21 01:35:31;;;;;;;7.45;4.47;;;7.70;99.90;;;;;;4979638;28;20038;-94
2022/06/21 01:37:57;;;;;;;8.02;4.13;;;7.70;99.90;;;;;;4979979;28;20502;-92
2022/06/21 01:40:29;;;;;;;6.78;4.18;;;7.70;99.90;;;;;;4979915;28;20031;-93
2022/06/21 01:43:02;;;;;;;5.93;4.35;;;7.80;99.90;;;;;;4980116;28;20133;-94
2022/06/21 01:45:34;;;;;;;5.22;4.32;;;7.70;99.90;;;;;;4979765;28;20039;-93
2022/06/21 01:48:12;;;;;;;5.50;4.18;;;7.80;99.90;;;;;;4979619;28;20033;-93
2022/06/21 01:50:42;;;;;;;9.35;4.85;;;7.80;99.90;;;;;;4980039;28;20041;-93
2022/06/21 01:53:09;;;;;;;6.18;3.97;;;7.80;99.90;;;;;;4979234;28;20066;-94
2022/06/21 01:55:42;;;;;;;5.78;4.60;;;7.80;99.90;;;;;;4979561;28;20042;-93
2022/06/21 01:58:15;;;;;;;8.20;4.60;;;7.80;99.90;;;;;;4979817;28;20026;-93
2022/06/21 02:00:44;;;;;;;7.00;4.50;;;7.80;99.90;;;;;;4979910;28;20478;-95
2022/06/21 02:03:16;;;;;;;8.05;4.90;;;7.80;99.90;;;;;;4979607;28;20085;-94
2022/06/21 02:05:50;;;;;;;8.30;4.78;;;7.80;99.90;;;;;;4979728;28;20058;-92
2022/06/21 02:08:20;;;;;;;6.75;5.20;;;7.90;99.90;;;;;;4979598;28;20125;-94
2022/06/21 02:10:50;;;;;;;5.90;5.25;;;7.90;99.90;;;;;;4979424;28;20039;-93
2022/06/21 02:13:32;;;;;;;9.57;5.03;;;8.00;99.90;;;;;;4979745;28;20077;-95
2022/06/21 02:16:07;;;;;;;6.43;4.75;;;8.00;99.90;;;;;;4979644;28;20039;-95
2022/06/21 02:18:38;;;;;;;10.07;4.72;;;7.90;99.90;;;;;;4979583;28;20038;-93
2022/06/21 02:21:36;;;;;;;6.53;4.60;;;7.90;99.90;;;;;;4979565;28;20505;-93
2022/06/21 02:24:02;;;;;;;8.43;4.65;;;7.90;99.90;;;;;;4978585;28;20102;-94
2022/06/21 02:26:30;;;;;;;8.25;4.63;;;7.90;99.90;;;;;;4979495;28;20059;-94
2022/06/21 02:28:57;;;;;;;5.68;4.13;;;7.90;99.90;;;;;;4979848;28;20434;-94
2022/06/21 02:31:25;;;;;;;5.75;4.43;;;7.80;99.90;;;;;;4979157;28;20065;-92
2022/06/21 02:33:55;;;;;;;6.47;4.88;;;7.80;99.90;;;;;;4979021;28;20038;-93
2022/06/21 02:36:26;;;;;;;6.47;4.90;;;7.80;99.90;;;;;;4979097;28;20041;-94
2022/06/21 02:38:56;;;;;;;7.10;4.82;;;7.80;99.90;;;;;;4979055;28;20034;-93
2022/06/21 02:41:37;;;;;;;7.25;4.75;;;7.70;99.90;;;;;;4995354;28;20391;-94
2022/06/21 02:44:12;;;;;;;6.20;5.50;;;7.70;99.90;;;;;;4978603;28;20023;-94
2022/06/21 02:46:41;;;;;;;13.27;4.68;;;7.70;99.90;;;;;;4978981;28;20094;-94
2022/06/21 02:49:10;;;;;;;5.45;4.40;;;7.70;99.90;;;;;;4978958;28;20037;-93
2022/06/21 02:51:40;;;;;;;10.40;5.75;;;7.80;99.90;;;;;;4977928;28;20461;-92
2022/06/21 02:54:17;;;;;;;7.77;5.57;;;7.80;99.90;;;;;;4977774;28;20031;-93
2022/06/21 02:56:56;;;;;;;7.25;5.10;;;7.80;99.90;;;;;;4978289;28;20093;-95
2022/06/21 02:59:22;;;;;;;12.20;5.55;;;7.90;99.90;;;;;;4979107;28;20113;-93
2022/06/21 03:02:00;;;;;;;8.27;5.30;;;7.90;99.90;;;;;;4978256;28;20035;-94
2022/06/21 03:04:36;;;;;;;9.40;5.10;;;7.90;99.90;;;;;;4978070;28;20042;-94
2022/06/21 03:07:03;;;;;;;6.53;4.60;;;7.90;99.90;;;;;;4978282;28;20045;-94
2022/06/21 03:09:30;;;;;;;8.88;4.97;;;7.90;99.90;;;;;;4978118;28;20026;-94
2022/06/21 03:12:00;;;;;;;7.75;5.70;;;7.90;99.90;;;;;;4978261;28;20469;-93
2022/06/21 03:14:29;;;;;;;10.20;5.05;;;7.90;99.90;;;;;;4978519;28;20035;-93
2022/06/21 03:16:57;;;;;;;10.48;4.72;;;8.00;99.90;;;;;;4978197;28;20102;-94
2022/06/21 03:19:43;;;;;;;9.18;4.82;;;8.00;99.90;;;;;;4978755;28;20070;-93
2022/06/21 03:22:21;;;;;;;5.13;4.40;;;8.00;99.90;;;;;;4991265;28;20419;-90
2022/06/21 03:24:50;;;;;;;9.65;4.85;;;8.00;99.90;;;;;;4974411;28;20031;-89
2022/06/21 03:27:22;;;;;;;11.20;4.85;;;8.10;99.90;;;;;;4974719;28;20659;-89
2022/06/21 03:29:48;;;;;;;9.45;5.30;;;8.10;99.90;;;;;;4974426;28;20027;-89
2022/06/21 03:32:14;;;;;;;5.40;4.53;;;8.20;99.90;;;;;;4974045;28;20023;-89
2022/06/21 03:34:41;;;;;;;7.00;4.55;;;8.20;99.90;;;;;;4974036;28;20092;-89
2022/06/21 03:37:07;;;;;;;9.82;5.22;;;8.30;99.90;;;;;;4974316;28;20077;-90
2022/06/21 03:42:23;;;;;;;9.65;4.55;;;8.30;99.90;;;;;;4974644;28;20430;-89
2022/06/21 03:44:58;;;;;;;12.25;5.18;;;8.50;99.90;;;;;;4973687;28;20039;-89
2022/06/21 03:47:37;;;;;;;11.90;5.18;;;8.60;99.90;;;;;;4974544;28;20482;-90
2022/06/21 03:50:07;;;;;;;8.50;4.65;;;8.80;99.90;;;;;;4974780;28;20042;-90
2022/06/21 03:52:46;;;;;;;6.93;4.18;;;9.00;99.90;;;;;;4974467;28;20038;-89
2022/06/21 03:55:29;;;;;;;8.63;4.32;;;9.10;99.90;;;;;;4973730;28;20039;-90
2022/06/21 03:58:22;;;;;;;7.82;4.38;;;9.10;99.90;;;;;;4973905;28;20027;-90
2022/06/21 04:00:54;;;;;;;9.35;4.40;;;9.20;99.90;;;;;;4973397;28;20035;-89
2022/06/21 04:03:24;;;;;;;5.68;4.03;;;9.40;99.90;;;;;;4973185;28;20042;-89
2022/06/21 04:06:02;;;;;;;5.57;4.20;;;9.40;99.90;;;;;;4973500;28;20542;-90
2022/06/21 04:09:06;;;;;;;9.38;4.20;;;9.60;99.90;;;;;;4973431;28;20034;-89
2022/06/21 04:11:40;;;;;;;6.97;4.72;;;9.70;99.90;;;;;;4985524;28;20039;-89
2022/06/21 04:14:21;;;;;;;12.82;4.18;;;9.70;99.90;;;;;;4972606;28;20043;-89
2022/06/21 04:17:19;;;;;;;7.68;4.03;;;9.80;99.90;;;;;;4973204;28;20030;-89
2022/06/21 04:20:11;;;;;;;8.48;4.00;;;10.00;99.90;;;;;;4989591;28;20045;-89
2022/06/21 04:22:44;;;;;;;8.35;3.90;;;10.20;99.90;;;;;;4972623;28;20491;-89
2022/06/21 04:25:19;;;;;;;6.75;3.92;;;10.30;99.90;;;;;;4972566;28;20046;-90
2022/06/21 04:28:02;;;;;;;8.32;3.72;;;10.50;99.90;;;;;;4973504;28;20082;-89
2022/06/21 04:30:38;;;;;;;6.45;3.45;;;10.60;99.90;;;;;;4973974;28;20031;-90
2022/06/21 04:33:06;;;;;;;8.00;4.07;;;10.60;99.90;;;;;;4973930;28;20035;-90
2022/06/21 04:35:40;;;;;;;6.28;3.88;;;10.80;99.90;;;;;;4973761;28;20031;-90
2022/06/21 04:38:20;;;;;;;7.72;3.78;;;10.90;99.90;;;;;;4974034;28;20039;-89
2022/06/21 04:40:56;;;;;;;8.90;3.90;;;11.10;99.90;;;;;;4974447;28;20505;-90
2022/06/21 04:43:32;;;;;;;6.80;3.40;;;11.20;99.90;;;;;;4973915;28;20038;-88
2022/06/21 04:46:29;;;;;;;7.13;4.57;;;11.40;99.90;;;;;;4974651;28;20035;-89
2022/06/21 04:49:20;;;;;;;11.85;4.22;;;11.40;99.90;;;;;;4982540;28;20031;-90
2022/06/21 04:51:53;;;;;;;4.97;3.00;;;11.50;99.90;;;;;;4974112;28;20163;-89
2022/06/21 04:54:41;;;;;;;4.15;3.30;;;11.60;99.90;;;;;;4973900;28;20038;-90
2022/06/21 04:57:11;;;;;;;8.05;3.30;;;11.70;99.90;;;;;;4973820;28;20418;-89
2022/06/21 04:59:59;;;;;;;7.05;3.35;;;11.90;99.90;;;;;;4973169;28;20737;-91
2022/06/21 05:02:49;;;;;;;10.95;3.90;;;12.00;99.90;;;;;;4973837;28;20023;-90
2022/06/21 05:05:22;;;;;;;6.70;3.38;;;12.10;99.90;;;;;;4973842;28;20513;-90
2022/06/21 05:08:07;;;;;;;3.70;2.97;;;12.20;99.90;;;;;;4974650;28;20051;-90
2022/06/21 05:10:36;;;;;;;7.30;4.07;;;12.30;99.90;;;;;;4974095;28;20510;-89
2022/06/21 05:13:15;;;;;;;4.30;3.30;;;12.40;99.90;;;;;;4973297;28;20130;-90
2022/06/21 05:15:41;;;;;;;6.15;3.25;;;12.50;99.90;;;;;;4975074;28;20042;-89
2022/06/21 05:18:14;;;;;;;9.68;3.20;;;12.50;99.90;;;;;;4976356;28;20030;-89
2022/06/21 05:20:48;;;;;;;5.93;3.35;;;12.50;99.90;;;;;;4977115;28;20121;-90
2022/06/21 05:23:17;;;;;;;5.50;3.42;;;12.60;99.90;;;;;;4993117;28;20058;-89
2022/06/21 05:25:45;;;;;;;6.65;3.25;;;12.70;99.90;;;;;;4977631;28;20039;-88
2022/06/21 05:28:18;;;;;;;12.35;3.63;;;12.80;99.90;;;;;;4977475;28;20030;-89
2022/06/21 05:30:51;;;;;;;12.18;3.50;;;12.80;99.90;;;;;;4976869;28;20038;-89
2022/06/21 05:33:28;;;;;;;5.47;3.78;;;13.00;99.90;;;;;;4977228;28;20130;-88
2022/06/21 05:35:54;;;;;;;9.63;3.45;;;13.10;99.90;;;;;;4992954;28;20034;-89
2022/06/21 05:38:30;;;;;;;9.65;3.50;;;13.10;99.90;;;;;;4976657;28;20034;-89
2022/06/21 05:40:59;;;;;;;7.97;3.67;;;13.20;99.90;;;;;;4976367;28;20041;-90
2022/06/21 05:43:48;;;;;;;8.90;3.58;;;13.30;99.90;;;;;;4992958;28;20035;-88
2022/06/21 05:46:20;;;;;;;7.25;3.70;;;13.50;99.90;;;;;;4977323;28;20027;-89
2022/06/21 05:48:46;;;;;;;5.82;3.45;;;13.50;99.90;;;;;;4977591;28;20035;-88
2022/06/21 05:51:16;;;;;;;9.02;4.00;;;13.60;99.90;;;;;;4977962;28;20050;-89
2022/06/21 05:53:47;;;;;;;9.88;3.40;;;13.70;99.90;;;;;;4977328;28;20034;-90
2022/06/21 05:56:17;;;;;;;6.43;3.70;;;13.80;99.90;;;;;;4977151;28;20031;-88
2022/06/21 05:58:47;;;;;;;8.27;3.35;;;13.90;99.90;;;;;;4976949;28;20042;-88
2022/06/21 06:01:20;;;;;;;10.52;3.70;;;14.00;99.90;;;;;;4992685;28;20042;-89
2022/06/21 06:03:55;;;;;;;7.80;4.00;;;14.00;99.90;;;;;;4992788;28;20039;-89
2022/06/21 06:06:21;;;;;;;10.90;3.72;;;14.10;99.90;;;;;;4976214;28;20035;-89
2022/06/21 06:08:53;;;;;;;11.27;3.60;;;14.20;99.90;;;;;;4976242;28;20042;-88
2022/06/21 06:11:26;;;;;;;;;;;14.20;99.90;;;;;;4976547;28;20035;-88
2022/06/21 06:13:55;;;;;;;9.60;3.63;;;14.30;99.90;;;;;;4991989;28;19910;-88
2022/06/21 06:16:23;;;;;;;6.90;3.90;;;14.40;99.90;;;;;;4991800;28;20393;-88
2022/06/21 06:18:54;;;;;;;6.38;3.38;;;14.50;99.90;;;;;;4976025;28;20042;-87
2022/06/21 06:21:24;;;;;;;8.35;4.20;;;14.60;99.90;;;;;;4976187;28;20561;-89
2022/06/21 06:24:06;;;;;;;15.85;4.05;;;14.60;99.90;;;;;;4975618;28;20138;-88
2022/06/21 06:26:36;;;;;;;11.60;3.63;;;14.80;99.90;;;;;;4975508;28;20126;-87
2022/06/21 06:29:11;;;;;;;8.37;3.43;;;14.90;99.90;;;;;;4975256;28;20034;-88
2022/06/21 06:31:52;;;;;;;7.97;3.58;;;15.00;99.90;;;;;;4975706;28;20035;-87
2022/06/21 06:34:22;;;;;;;8.65;3.90;;;15.20;99.90;;;;;;4976535;28;20505;-88
2022/06/21 06:36:52;;;;;;;6.93;3.58;;;15.30;99.90;;;;;;4975681;28;20505;-88
2022/06/21 06:39:27;;;;;;;10.80;4.05;;;15.40;99.90;;;;;;4975995;28;20035;-88
2022/06/21 06:42:07;;;;;;;8.82;3.65;;;15.50;99.90;;;;;;4975581;28;20042;-89
2022/06/21 06:44:37;;;;;;;9.57;3.15;;;15.70;99.90;;;;;;4975676;28;20030;-90
2022/06/21 06:47:04;;;;;;;10.60;3.80;;;15.80;99.90;;;;;;4975961;28;20106;-89
2022/06/21 06:49:38;;;;;;;9.48;4.13;;;15.90;99.90;;;;;;4975493;28;20030;-89
2022/06/21 06:52:35;;;;;;;13.02;3.40;;;15.90;99.90;;;;;;4975665;28;20033;-88
2022/06/21 06:55:16;;;;;;;5.55;3.47;;;15.90;99.90;;;;;;4975947;28;20495;-90
2022/06/21 06:57:50;;;;;;;9.65;3.20;;;16.10;99.90;;;;;;4975509;28;20093;-88
2022/06/21 07:00:20;;;;;;;9.68;3.85;;;16.00;99.90;;;;;;4975130;28;20505;-88
2022/06/21 07:03:24;;;;;;;7.05;3.53;;;15.90;99.90;;;;;;4975314;28;20063;-88
2022/06/21 07:06:12;;;;;;;6.57;3.30;;;15.90;99.90;;;;;;4987463;28;20113;-88
2022/06/21 07:09:03;;;;;;;5.53;3.20;;;16.10;99.90;;;;;;4975616;28;20041;-88
2022/06/21 07:11:52;;;;;;;8.77;3.72;;;16.90;99.90;;;;;;4975093;28;20035;-90
2022/06/21 07:14:21;;;;;;;4.78;2.80;;;17.70;99.90;;;;;;4959341;28;20039;-88
2022/06/21 07:16:52;;;;;;;8.35;2.80;;;18.40;99.90;;;;;;4974782;28;20027;-88
2022/06/21 07:19:18;;;;;;;9.30;2.45;;;19.20;99.90;;;;;;4974169;28;20121;-88
2022/06/21 07:21:44;;;;;;;5.72;2.80;;;20.10;99.90;;;;;;4990499;28;20471;-88
2022/06/21 07:24:19;;;;;;;7.97;1.95;;;21.20;99.90;;;;;;4974093;28;20054;-88
2022/06/21 07:26:53;;;;;;;9.77;2.38;;;21.50;99.90;;;;;;4974197;28;20125;-89
2022/06/21 07:29:37;;;;;;;6.07;2.60;;;21.80;99.90;;;;;;4974459;28;20482;-88
2022/06/21 07:32:09;;;;;;;8.23;2.60;;;21.90;99.90;;;;;;4974671;28;20500;-88
2022/06/21 07:34:48;;;;;;;4.10;2.20;;;22.50;99.90;;;;;;4974940;28;20074;-88
2022/06/21 07:37:20;;;;;;;7.32;3.33;;;22.80;99.80;;;;;;4974781;28;20082;-89
2022/06/21 07:39:57;;;;;;;5.07;2.33;;;22.90;98.70;;;;;;4974984;28;20134;-89
2022/06/21 07:42:58;;;;;;;8.15;2.65;;;22.50;98.60;;;;;;4976264;28;20035;-88
2022/06/21 07:45:44;;;;;;;;;;;21.50;99.50;;;;;;4989520;28;20050;-88
2022/06/21 07:48:24;;;;;;;12.65;2.90;;;19.90;99.90;;;;;;4994769;28;19914;-88
2022/06/21 07:50:53;;;;;;;6.35;3.22;;;18.60;99.90;;;;;;4978786;28;20391;-88
2022/06/21 07:53:32;;;;;;;5.38;3.25;;;17.90;99.90;;;;;;4975560;28;20035;-87
2022/06/21 07:56:13;;;;;;;8.95;2.58;;;17.60;99.90;;;;;;4974443;28;20521;-89
2022/06/21 07:59:04;;;;;;;5.18;2.58;;;17.70;99.90;;;;;;4990525;28;20031;-89
2022/06/21 08:07:22;;;;;;;14.38;1.90;;;22.40;99.90;;;;;;4975197;28;20437;-89
2022/06/21 08:09:54;;;;;;;5.88;2.22;;;22.40;99.90;;;;;;4973995;28;20121;-90
2022/06/21 08:12:20;;;;;;;6.03;2.70;;;21.70;98.90;;;;;;4974750;28;20447;-89
2022/06/21 08:14:46;;;;;;;5.18;2.38;;;20.50;99.90;;;;;;4974537;28;20041;-89
2022/06/21 08:17:38;;;;;;;12.10;2.58;;;19.40;99.90;;;;;;4974585;28;20117;-88
2022/06/21 08:20:20;;;;;;;7.43;2.80;;;18.70;99.90;;;;;;4974676;28;20035;-89
2022/06/21 08:22:58;;;;;;;5.88;2.53;;;18.80;99.90;;;;;;4973856;28;20043;-88
2022/06/21 08:25:29;;;;;;;9.73;2.42;;;18.80;99.90;;;;;;4974210;28;20056;-89
2022/06/21 08:28:13;;;;;;;4.40;2.10;;;18.90;99.90;;;;;;4973976;28;20027;-88
2022/06/21 08:30:46;;;;;;;5.20;2.13;;;21.00;99.90;;;;;;4973803;28;20035;-89
2022/06/21 08:33:18;;;;;;;4.40;1.75;;;22.80;99.40;;;;;;4973535;28;20459;-89
2022/06/21 08:36:00;;;;;;;6.22;2.20;;;24.00;97.10;;;;;;4975412;28;20027;-89
2022/06/21 08:38:37;;;;;;;4.47;1.65;;;24.40;94.20;;;;;;4973828;28;20031;-90
2022/06/21 08:44:38;;;;;;;6.78;2.10;;;24.70;93.00;;;;;;4975482;28;20043;-89
2022/06/21 08:47:13;;;;;;;6.57;2.55;;;24.40;93.00;;;;;;4974672;28;20490;-89
2022/06/21 08:49:54;;;;;;;15.32;2.25;;;24.10;93.10;;;;;;4973642;28;20022;-88
2022/06/21 08:52:53;;;;;;;3.95;1.90;;;24.60;92.30;;;;;;4977339;28;20030;-90
2022/06/21 08:55:55;;;;;;;4.13;2.00;;;25.40;90.20;;;;;;4969290;28;20039;-89
2022/06/21 08:58:36;;;;;;;6.47;1.88;;;25.60;88.00;;;;;;4977022;28;20038;-89
2022/06/21 09:01:01;;;;;;;;;;;26.60;85.00;;;;;;4978754;28;20058;-89
2022/06/21 09:04:04;;;;;;;4.90;1.90;;;26.00;84.60;;;;;;4977693;28;20380;-89
2022/06/21 09:06:30;;;;;;;4.75;1.92;;;24.60;85.70;;;;;;4977914;28;20022;-90
2022/06/21 09:09:10;;;;;;;9.18;2.55;;;23.90;87.90;;;;;;4978088;28;20029;-90
2022/06/21 09:11:48;;;;;;;6.95;2.42;;;23.90;90.00;;;;;;4977698;28;20030;-89
2022/06/21 09:14:48;;;;;;;8.80;2.25;;;24.00;87.80;;;;;;4976480;28;20138;-89
2022/06/21 09:17:35;;;;;;;3.78;1.85;;;23.70;87.20;;;;;;4977436;28;20041;-89
2022/06/21 09:20:20;;;;;;;3.63;1.85;;;23.90;88.70;;;;;;4977485;28;20053;-90
2022/06/21 09:23:08;;;;;;;7.95;2.35;;;23.60;87.90;;;;;;4977297;28;20134;-91
2022/06/21 09:25:39;;;;;;;4.93;1.70;;;23.50;87.30;;;;;;4977219;28;20070;-89
2022/06/21 09:28:10;;;;;;;4.80;2.03;;;23.60;87.30;;;;;;4978310;28;20034;-89
2022/06/21 09:30:48;;;;;;;6.47;2.17;;;23.60;88.50;;;;;;4976798;28;20031;-87
2022/06/21 09:33:24;;;;;;;5.75;1.95;;;24.30;88.20;;;;;;4976327;28;20031;-88
2022/06/21 09:36:14;;;;;;;5.32;2.10;;;25.00;85.70;;;;;;4977449;28;20035;-89
2022/06/21 09:38:56;;;;;;;7.03;2.28;;;24.80;84.50;;;;;;4976682;28;20482;-90
2022/06/21 09:41:54;;;;;;;3.70;1.77;;;25.20;84.70;;;;;;4992958;28;20402;-89
2022/06/21 09:44:42;;;;;;;5.00;2.00;;;24.90;86.00;;;;;;4991614;28;20043;-89
2022/06/21 09:47:28;;;;;;;6.68;2.17;;;24.60;84.40;;;;;;4976742;28;20033;-88
2022/06/21 09:50:12;;;;;;;6.75;1.98;;;24.60;81.10;;;;;;4992294;28;20506;-89
2022/06/21 09:53:13;;;;;;;2.75;1.77;;;25.50;83.50;;;;;;4976329;28;20034;-88
2022/06/21 09:55:53;;;;;;;5.43;1.92;;;26.00;82.30;;;;;;4993473;28;20035;-90
2022/06/21 09:58:26;;;;;;;8.25;2.35;;;26.00;82.40;;;;;;4976529;28;20102;-88
2022/06/21 10:01:11;;;;;;;4.22;1.70;;;25.50;82.20;;;;;;4977054;28;20133;-91
2022/06/21 10:04:10;;;;;;;5.07;1.75;;;25.40;81.80;;;;;;4976653;28;20806;-89
2022/06/21 10:07:14;;;;;;;6.25;2.03;;;25.40;80.50;;;;;;4976125;28;20085;-89
2022/06/21 10:10:13;;;;;;;3.15;1.70;;;25.90;80.90;;;;;;4968402;28;20069;-88
2022/06/21 10:12:50;;;;;;;9.10;1.90;;;26.70;79.00;;;;;;4976422;28;20073;-89
2022/06/21 10:15:31;;;;;;;4.32;2.03;;;27.30;76.90;;;;;;4976435;28;20139;-88
2022/06/21 10:18:26;;;;;;;6.75;1.60;;;26.40;75.40;;;;;;4976094;28;20026;-88
2022/06/21 10:21:40;;;;;;;6.10;1.73;;;25.60;75.80;;;;;;4975391;28;20554;-87
2022/06/21 10:24:25;;;;;;;3.45;1.98;;;25.60;78.20;;;;;;4971084;28;20044;-89
2022/06/21 10:27:01;;;;;;;10.18;1.63;;;25.40;75.70;;;;;;4973338;28;20030;-88
2022/06/21 10:29:55;;;;;;;5.72;1.77;;;25.00;76.00;;;;;;4976770;28;20510;-90
2022/06/21 10:32:42;;;;;;;5.57;1.55;;;24.90;75.90;;;;;;4976115;28;20033;-88
2022/06/21 10:35:42;;;;;;;4.40;1.75;;;24.60;79.00;;;;;;4975904;28;20049;-89
2022/06/21 10:38:39;;;;;;;7.93;2.50;;;24.10;76.70;;;;;;4976050;28;20162;-89
2022/06/21 10:41:20;;;;;;;6.20;2.05;;;23.90;78.50;;;;;;4959994;28;20031;-88
2022/06/21 10:44:15;;;;;;;8.57;2.67;;;23.90;79.20;;;;;;4975840;28;20049;-91
2022/06/21 10:46:50;;;;;;;5.97;1.50;;;24.40;78.30;;;;;;4976484;28;20034;-89
2022/06/21 10:49:37;;;;;;;4.65;2.00;;;25.60;77.90;;;;;;4993465;28;20388;-89
2022/06/21 10:52:14;;;;;;;2.90;1.60;;;25.80;73.50;;;;;;4984015;28;20073;-89
2022/06/21 10:55:04;;;;;;;3.97;1.73;;;25.40;76.00;;;;;;4975527;28;20039;-88
2022/06/21 10:57:44;;;;;;;3.73;1.50;;;25.50;72.40;;;;;;4975156;28;20046;-89
2022/06/21 11:03:37;;;;;;;5.35;2.13;;;25.60;72.80;;;;;;4975412;28;20793;-91
2022/06/21 11:06:26;;;;;;;6.57;1.77;;;25.80;70.90;;;;;;4975418;28;20039;-89
2022/06/21 11:09:00;;;;;;;3.30;1.40;;;26.20;72.20;;;;;;4971003;28;20096;-88
2022/06/21 11:11:55;;;;;;;11.38;2.47;;;26.70;69.60;;;;;;4975034;28;20119;-90
2022/06/21 11:14:36;;;;;;;2.97;1.27;;;26.70;67.40;;;;;;4974145;28;20126;-88
2022/06/21 11:17:37;;;;;;;5.63;1.40;;;26.70;68.30;;;;;;4974566;28;20027;-90
2022/06/21 11:20:15;;;;;;;;;;;26.80;66.10;;;;;;4958145;28;20051;-90
2022/06/21 11:22:43;;;;;;;4.93;1.38;;;26.00;68.00;;;;;;4973964;28;19914;-89
2022/06/21 11:25:30;;;;;;;3.63;1.48;;;26.40;66.90;;;;;;4973578;28;20034;-89
2022/06/21 11:28:31;;;;;;;3.83;1.50;;;26.70;66.80;;;;;;4974642;28;20047;-88
2022/06/21 11:31:25;;;;;;;7.50;1.80;;;26.80;67.30;;;;;;4974318;28;20483;-89
2022/06/21 11:34:22;;;;;;;3.85;1.30;;;27.10;64.10;;;;;;4988253;28;20077;-89
2022/06/21 11:37:27;;;;;;;3.65;1.30;;;27.10;64.50;;;;;;4975120;28;20483;-90
2022/06/21 11:40:08;;;;;;;2.45;1.20;;;26.30;63.80;;;;;;4990926;28;20043;-91
2022/06/21 11:42:52;;;;;;;5.38;1.80;;;26.60;60.50;;;;;;4974844;28;20039;-88
2022/06/21 11:45:47;;;;;;;5.25;1.60;;;26.60;64.20;;;;;;4973985;28;20034;-90
2022/06/21 11:48:58;;;;;;;3.50;1.70;;;26.60;65.10;;;;;;4973858;28;20130;-90
2022/06/21 11:52:05;;;;;;;6.40;1.95;;;26.70;66.00;;;;;;4964481;28;20557;-90
2022/06/21 11:54:41;;;;;;;3.97;1.55;;;26.50;64.30;;;;;;4958091;28;20031;-89
2022/06/21 11:57:22;;;;;;;6.10;2.00;;;26.50;66.70;;;;;;4974416;28;20035;-90
2022/06/21 12:00:05;;;;;;;3.85;1.70;;;26.40;66.30;;;;;;4974436;28;20026;-89
2022/06/21 12:02:52;;;;;;;2.92;1.75;;;26.20;68.30;;;;;;4973967;28;20486;-89
2022/06/21 12:05:30;;;;;;;3.95;1.83;;;26.50;67.10;;;;;;4974392;28;20039;-90
2022/06/21 12:08:10;;;;;;;6.05;1.77;;;26.80;67.80;;;;;;4975406;28;20093;-89
2022/06/21 12:10:57;;;;;;;6.20;1.83;;;26.90;66.10;;;;;;4974657;28;20501;-90
2022/06/21 12:13:25;;;;;;;4.05;2.25;;;26.60;65.50;;;;;;4973648;28;20130;-91
2022/06/21 12:16:20;;;;;;;6.18;2.10;;;26.50;66.30;;;;;;4974720;28;20058;-90
2022/06/21 12:18:52;;;;;;;6.18;1.98;;;25.80;68.60;;;;;;4974784;28;20035;-91
2022/06/21 12:21:22;;;;;;;6.07;2.03;;;25.80;70.00;;;;;;4974289;28;20031;-91
2022/06/21 12:23:53;;;;;;;4.13;2.30;;;26.70;68.60;;;;;;4973777;28;20031;-88
2022/06/21 12:26:26;;;;;;;7.13;2.53;;;27.70;67.30;;;;;;4976276;28;20042;-89
2022/06/21 12:28:57;;;;;;;5.20;1.90;;;28.50;64.40;;;;;;4977538;28;20039;-92
2022/06/21 12:31:30;;;;;;;5.25;1.70;;;29.10;65.30;;;;;;4978323;28;20053;-90
2022/06/21 12:34:10;;;;;;;3.35;1.70;;;28.70;61.80;;;;;;4977906;28;20502;-90
2022/06/21 12:37:19;;;;;;;7.88;2.40;;;28.50;64.30;;;;;;4977444;28;20578;-90
2022/06/21 12:39:51;;;;;;;3.15;1.70;;;28.70;65.50;;;;;;4967202;28;20038;-91
2022/06/21 12:42:42;;;;;;;2.38;1.55;;;29.60;62.80;;;;;;4977703;28;20069;-90
2022/06/21 12:45:17;;;;;;;3.08;1.83;;;30.40;60.20;;;;;;4978513;28;20035;-90
2022/06/21 12:48:13;;;;;;;5.22;1.70;;;30.20;59.70;;;;;;4977912;28;20039;-91
2022/06/21 12:50:46;;;;;;;4.43;2.15;;;30.20;60.60;;;;;;4977365;28;20035;-89
2022/06/21 12:53:18;;;;;;;3.83;1.88;;;29.80;59.40;;;;;;4978171;28;20039;-92
2022/06/21 12:55:56;;;;;;;4.53;1.98;;;30.10;61.00;;;;;;4977573;28;20489;-90
2022/06/21 12:58:40;;;;;;;3.53;1.92;;;29.30;60.80;;;;;;4978011;28;20073;-90
2022/06/21 13:01:21;;;;;;;4.70;1.73;;;29.20;61.50;;;;;;4978245;28;20038;-89
2022/06/21 13:04:29;;;;;;;3.25;1.65;;;29.60;62.30;;;;;;4978310;28;20094;-90
2022/06/21 13:07:30;;;;;;;3.55;1.65;;;29.90;60.50;;;;;;4994654;28;20059;-89
2022/06/21 13:10:25;;;;;;;4.60;1.85;;;30.70;60.30;;;;;;4978607;28;20066;-91
2022/06/21 13:13:16;;;;;;;3.65;1.80;;;30.40;58.50;;;;;;4978547;28;20034;-90
2022/06/21 13:15:58;;;;;;;3.58;1.90;;;30.50;58.50;;;;;;4978332;28;20039;-91
2022/06/21 13:19:01;;;;;;;6.35;2.15;;;30.00;59.60;;;;;;4978427;28;20038;-91
2022/06/21 13:21:42;;;;;;;6.38;2.47;;;29.00;59.40;;;;;;4977419;28;20102;-88
2022/06/21 13:24:45;;;;;;;4.97;1.98;;;28.00;61.20;;;;;;4977142;28;20034;-88
2022/06/21 13:27:14;;;;;;;4.18;2.10;;;27.70;63.70;;;;;;4977603;28;20054;-89
2022/06/21 13:30:01;;;;;;;4.88;1.98;;;27.50;66.50;;;;;;4977398;28;20035;-87
2022/06/21 13:32:31;;;;;;;3.63;2.00;;;27.50;65.60;;;;;;4977790;28;20035;-89
2022/06/21 13:35:15;;;;;;;4.63;2.28;;;28.00;65.70;;;;;;4977392;28;20035;-90
2022/06/21 13:37:54;;;;;;;9.88;3.67;;;28.40;64.30;;;;;;4977640;28;20035;-89
2022/06/21 13:40:22;;;;;;;4.93;1.92;;;28.30;63.30;;;;;;4976989;28;20058;-91
2022/06/21 13:42:57;;;;;;;4.43;2.35;;;28.90;63.90;;;;;;4977794;28;20039;-90
2022/06/21 13:45:38;;;;;;;3.78;1.80;;;29.10;63.20;;;;;;4977057;28;20051;-91
2022/06/21 13:48:12;;;;;;;;;;;29.80;63.40;;;;;;4977630;28;20038;-90
2022/06/21 13:50:53;;;;;;;7.90;2.47;;;30.20;62.70;;;;;;4977846;28;19909;-90
2022/06/21 13:53:34;;;;;;;10.32;2.40;;;30.90;58.60;;;;;;4976297;28;20023;-90
2022/06/21 13:56:16;;;;;;;6.72;2.30;;;31.60;59.10;;;;;;4978009;28;20034;-90
2022/06/21 13:58:46;;;;;;;11.05;2.33;;;30.90;58.90;;;;;;4978064;28;20191;-89
2022/06/21 14:01:15;;;;;;;5.97;2.08;;;30.10;59.20;;;;;;4993011;28;20113;-90
2022/06/21 14:03:53;;;;;;;3.60;1.88;;;30.10;59.20;;;;;;4976823;28;20843;-89